sensor_id;sensor_type;location;lat;lon;timestamp;pressure;altitude;pressure_sealevel;temperature;humidity
71889;BME280;59762;49.998;14.858;2023-03-14T00:03:35;95764.34;;;8.55;86.13
71889;BME280;59762;49.998;14.858;2023-03-14T00:06:05;95763.84;;;8.45;86.50
71889;BME280;59762;49.998;14.858;2023-03-14T00:08:31;95767.97;;;8.33;87.93
71889;BME280;59762;49.998;14.858;2023-03-14T00:10:56;95772.63;;;8.31;88.13
71889;BME280;59762;49.998;14.858;2023-03-14T00:13:25;95804.16;;;8.34;87.94
71889;BME280;59762;49.998;14.858;2023-03-14T00:15:51;95835.66;;;8.45;86.98
71889;BME280;59762;49.998;14.858;2023-03-14T00:18:16;95852.69;;;8.51;86.70
71889;BME280;59762;49.998;14.858;2023-03-14T00:20:42;95849.28;;;8.42;87.01
71889;BME280;59762;49.998;14.858;2023-03-14T00:23:07;95831.13;;;8.31;87.33
71889;BME280;59762;49.998;14.858;2023-03-14T00:25:34;95826.19;;;8.28;87.39
71889;BME280;59762;49.998;14.858;2023-03-14T00:28:00;95820.03;;;8.28;88.34
71889;BME280;59762;49.998;14.858;2023-03-14T00:30:25;95810.41;;;8.27;89.20
71889;BME280;59762;49.998;14.858;2023-03-14T00:32:51;95799.31;;;8.23;90.16
71889;BME280;59762;49.998;14.858;2023-03-14T00:35:17;95801.59;;;8.26;90.40
71889;BME280;59762;49.998;14.858;2023-03-14T00:37:42;95801.78;;;8.25;91.51
71889;BME280;59762;49.998;14.858;2023-03-14T00:40:09;95804.50;;;8.17;92.13
71889;BME280;59762;49.998;14.858;2023-03-14T00:42:35;95810.38;;;8.12;93.09
71889;BME280;59762;49.998;14.858;2023-03-14T00:45:01;95797.16;;;8.04;94.06
71889;BME280;59762;49.998;14.858;2023-03-14T00:47:26;95796.78;;;7.92;95.27
71889;BME280;59762;49.998;14.858;2023-03-14T00:49:52;95794.00;;;7.86;95.66
71889;BME280;59762;49.998;14.858;2023-03-14T00:52:17;95773.22;;;7.89;96.14
71889;BME280;59762;49.998;14.858;2023-03-14T00:54:43;95771.22;;;8.06;94.61
71889;BME280;59762;49.998;14.858;2023-03-14T00:57:09;95760.78;;;8.04;93.81
71889;BME280;59762;49.998;14.858;2023-03-14T00:59:34;95760.31;;;8.15;92.84
71889;BME280;59762;49.998;14.858;2023-03-14T01:02:00;95749.97;;;8.21;92.53
71889;BME280;59762;49.998;14.858;2023-03-14T01:04:26;95739.53;;;8.19;92.98
71889;BME280;59762;49.998;14.858;2023-03-14T01:06:51;95729.41;;;8.00;94.17
71889;BME280;59762;49.998;14.858;2023-03-14T01:09:17;95706.41;;;7.92;95.39
71889;BME280;59762;49.998;14.858;2023-03-14T01:11:43;95683.13;;;8.09;93.10
71889;BME280;59762;49.998;14.858;2023-03-14T01:14:12;95683.22;;;8.15;91.84
71889;BME280;59762;49.998;14.858;2023-03-14T01:16:38;95662.53;;;8.26;90.25
71889;BME280;59762;49.998;14.858;2023-03-14T01:19:04;95643.72;;;8.27;90.61
71889;BME280;59762;49.998;14.858;2023-03-14T01:21:33;95629.31;;;8.36;88.83
71889;BME280;59762;49.998;14.858;2023-03-14T01:24:00;95626.66;;;8.36;88.28
71889;BME280;59762;49.998;14.858;2023-03-14T01:26:29;95616.03;;;8.36;87.63
71889;BME280;59762;49.998;14.858;2023-03-14T01:28:56;95605.00;;;8.39;86.60
71889;BME280;59762;49.998;14.858;2023-03-14T01:31:22;95596.47;;;8.44;85.53
71889;BME280;59762;49.998;14.858;2023-03-14T01:33:48;95588.53;;;8.50;84.77
71889;BME280;59762;49.998;14.858;2023-03-14T01:36:14;95577.56;;;8.60;84.39
71889;BME280;59762;49.998;14.858;2023-03-14T01:38:40;95574.28;;;8.58;84.78
71889;BME280;59762;49.998;14.858;2023-03-14T01:41:08;95581.44;;;8.57;84.45
71889;BME280;59762;49.998;14.858;2023-03-14T01:43:37;95588.50;;;8.65;83.76
71889;BME280;59762;49.998;14.858;2023-03-14T01:48:42;95569.28;;;8.48;82.91
71889;BME280;59762;49.998;14.858;2023-03-14T01:51:13;95555.97;;;8.48;83.35
71889;BME280;59762;49.998;14.858;2023-03-14T01:53:42;95555.53;;;8.45;83.04
71889;BME280;59762;49.998;14.858;2023-03-14T01:56:12;95553.59;;;8.32;83.59
71889;BME280;59762;49.998;14.858;2023-03-14T01:58:41;95546.66;;;8.38;81.86
71889;BME280;59762;49.998;14.858;2023-03-14T02:01:09;95557.88;;;8.33;81.88
71889;BME280;59762;49.998;14.858;2023-03-14T02:03:41;95533.53;;;8.30;81.22
71889;BME280;59762;49.998;14.858;2023-03-14T02:06:10;95526.34;;;8.30;80.84
71889;BME280;59762;49.998;14.858;2023-03-14T02:08:37;95517.69;;;8.22;81.47
71889;BME280;59762;49.998;14.858;2023-03-14T02:11:05;95527.13;;;8.24;80.82
71889;BME280;59762;49.998;14.858;2023-03-14T02:13:32;95527.75;;;8.26;80.94
71889;BME280;59762;49.998;14.858;2023-03-14T02:15:58;95514.84;;;8.23;81.04
71889;BME280;59762;49.998;14.858;2023-03-14T02:18:24;95530.16;;;8.21;81.65
71889;BME280;59762;49.998;14.858;2023-03-14T02:24:01;95542.66;;;8.27;82.00
71889;BME280;59762;49.998;14.858;2023-03-14T02:26:40;95539.22;;;8.27;82.19
71889;BME280;59762;49.998;14.858;2023-03-14T02:29:07;95515.38;;;8.18;83.14
71889;BME280;59762;49.998;14.858;2023-03-14T02:31:33;95535.72;;;8.26;82.08
71889;BME280;59762;49.998;14.858;2023-03-14T02:33:59;95531.31;;;8.18;83.06
71889;BME280;59762;49.998;14.858;2023-03-14T02:36:26;95523.25;;;8.27;81.47
71889;BME280;59762;49.998;14.858;2023-03-14T02:38:54;95514.25;;;8.28;81.95
71889;BME280;59762;49.998;14.858;2023-03-14T02:41:20;95509.00;;;8.34;80.90
71889;BME280;59762;49.998;14.858;2023-03-14T02:43:46;95509.50;;;8.44;80.04
71889;BME280;59762;49.998;14.858;2023-03-14T02:46:14;95512.28;;;8.57;78.36
71889;BME280;59762;49.998;14.858;2023-03-14T02:48:50;95508.03;;;8.63;77.73
71889;BME280;59762;49.998;14.858;2023-03-14T02:51:16;95505.78;;;8.66;77.09
71889;BME280;59762;49.998;14.858;2023-03-14T02:53:42;95517.03;;;8.62;77.08
71889;BME280;59762;49.998;14.858;2023-03-14T02:56:09;95513.09;;;8.58;76.43
71889;BME280;59762;49.998;14.858;2023-03-14T02:58:36;95537.09;;;8.64;75.63
71889;BME280;59762;49.998;14.858;2023-03-14T03:01:02;95535.16;;;8.52;76.54
71889;BME280;59762;49.998;14.858;2023-03-14T03:03:28;95527.13;;;8.45;76.79
71889;BME280;59762;49.998;14.858;2023-03-14T03:05:55;95533.31;;;8.31;77.14
71889;BME280;59762;49.998;14.858;2023-03-14T03:08:23;95520.59;;;8.27;77.23
71889;BME280;59762;49.998;14.858;2023-03-14T03:10:49;95516.22;;;8.19;77.45
71889;BME280;59762;49.998;14.858;2023-03-14T03:13:16;95520.59;;;8.27;76.61
71889;BME280;59762;49.998;14.858;2023-03-14T03:15:41;95520.50;;;8.20;76.52
71889;BME280;59762;49.998;14.858;2023-03-14T03:18:07;95545.44;;;8.19;76.57
71889;BME280;59762;49.998;14.858;2023-03-14T03:20:33;95527.13;;;8.09;77.43
71889;BME280;59762;49.998;14.858;2023-03-14T03:22:59;95515.91;;;8.14;76.87
71889;BME280;59762;49.998;14.858;2023-03-14T03:25:25;95510.06;;;8.18;76.44
71889;BME280;59762;49.998;14.858;2023-03-14T03:27:51;95501.91;;;8.20;75.68
71889;BME280;59762;49.998;14.858;2023-03-14T03:30:16;95497.59;;;8.19;75.90
71889;BME280;59762;49.998;14.858;2023-03-14T03:32:43;95487.94;;;8.18;76.12
71889;BME280;59762;49.998;14.858;2023-03-14T03:35:09;95495.41;;;8.23;75.44
71889;BME280;59762;49.998;14.858;2023-03-14T03:37:35;95471.47;;;8.23;75.35
71889;BME280;59762;49.998;14.858;2023-03-14T03:40:01;95477.13;;;8.19;75.32
71889;BME280;59762;49.998;14.858;2023-03-14T03:42:31;95471.09;;;8.26;75.12
71889;BME280;59762;49.998;14.858;2023-03-14T03:44:57;95482.97;;;8.08;76.67
71889;BME280;59762;49.998;14.858;2023-03-14T03:47:23;95482.97;;;8.08;76.66
71889;BME280;59762;49.998;14.858;2023-03-14T03:49:48;95476.38;;;8.04;76.35
71889;BME280;59762;49.998;14.858;2023-03-14T03:52:14;95480.88;;;8.04;76.48
71889;BME280;59762;49.998;14.858;2023-03-14T03:58:27;95492.44;;;7.96;76.73
71889;BME280;59762;49.998;14.858;2023-03-14T04:00:54;95495.09;;;7.96;76.85
71889;BME280;59762;49.998;14.858;2023-03-14T04:03:19;95489.22;;;8.01;76.52
71889;BME280;59762;49.998;14.858;2023-03-14T04:05:45;95506.16;;;8.00;76.87
71889;BME280;59762;49.998;14.858;2023-03-14T04:08:11;95492.34;;;8.04;77.27
71889;BME280;59762;49.998;14.858;2023-03-14T04:10:36;95502.13;;;8.04;77.07
71889;BME280;59762;49.998;14.858;2023-03-14T04:13:02;95504.41;;;8.07;77.23
71889;BME280;59762;49.998;14.858;2023-03-14T04:15:28;95492.00;;;8.14;76.98
71889;BME280;59762;49.998;14.858;2023-03-14T04:17:58;95491.53;;;8.25;76.51
71889;BME280;59762;49.998;14.858;2023-03-14T04:20:24;95489.97;;;8.31;76.64
71889;BME280;59762;49.998;14.858;2023-03-14T04:22:49;95496.34;;;8.36;76.63
71889;BME280;59762;49.998;14.858;2023-03-14T04:25:15;95499.69;;;8.45;76.53
71889;BME280;59762;49.998;14.858;2023-03-14T04:27:42;95500.53;;;8.45;77.11
71889;BME280;59762;49.998;14.858;2023-03-14T04:30:08;95509.28;;;8.67;75.96
71889;BME280;59762;49.998;14.858;2023-03-14T04:32:34;95514.00;;;8.65;76.54
71889;BME280;59762;49.998;14.858;2023-03-14T04:35:00;95509.63;;;8.57;76.98
71889;BME280;59762;49.998;14.858;2023-03-14T04:37:25;95519.88;;;8.60;76.95
71889;BME280;59762;49.998;14.858;2023-03-14T04:39:51;95516.38;;;8.60;77.04
71889;BME280;59762;49.998;14.858;2023-03-14T04:42:17;95510.56;;;8.50;77.76
71889;BME280;59762;49.998;14.858;2023-03-14T04:44:42;95524.13;;;8.55;77.18
71889;BME280;59762;49.998;14.858;2023-03-14T04:47:08;95518.56;;;8.50;77.10
71889;BME280;59762;49.998;14.858;2023-03-14T04:49:34;95515.59;;;8.38;78.60
71889;BME280;59762;49.998;14.858;2023-03-14T04:51:59;95510.88;;;8.40;79.08
71889;BME280;59762;49.998;14.858;2023-03-14T04:54:25;95507.00;;;8.36;79.44
71889;BME280;59762;49.998;14.858;2023-03-14T04:56:51;95499.13;;;8.49;80.20
71889;BME280;59762;49.998;14.858;2023-03-14T04:59:17;95502.66;;;8.56;81.23
71889;BME280;59762;49.998;14.858;2023-03-14T05:01:42;95509.09;;;8.68;82.17
71889;BME280;59762;49.998;14.858;2023-03-14T05:04:08;95519.81;;;8.75;82.46
71889;BME280;59762;49.998;14.858;2023-03-14T05:06:33;95509.44;;;8.86;83.24
71889;BME280;59762;49.998;14.858;2023-03-14T05:09:00;95511.69;;;9.10;83.42
71889;BME280;59762;49.998;14.858;2023-03-14T05:11:26;95504.66;;;9.37;81.90
71889;BME280;59762;49.998;14.858;2023-03-14T05:13:51;95498.28;;;9.38;82.01
71889;BME280;59762;49.998;14.858;2023-03-14T05:16:17;95493.25;;;9.49;81.49
71889;BME280;59762;49.998;14.858;2023-03-14T05:18:43;95486.06;;;9.50;81.71
71889;BME280;59762;49.998;14.858;2023-03-14T05:21:08;95493.25;;;9.49;81.82
71889;BME280;59762;49.998;14.858;2023-03-14T05:23:34;95486.91;;;9.50;81.95
71889;BME280;59762;49.998;14.858;2023-03-14T05:25:59;95491.84;;;9.53;82.10
71889;BME280;59762;49.998;14.858;2023-03-14T05:28:25;95493.31;;;9.62;81.68
71889;BME280;59762;49.998;14.858;2023-03-14T05:30:51;95483.50;;;9.76;80.58
71889;BME280;59762;49.998;14.858;2023-03-14T05:33:17;95484.72;;;9.73;80.92
71889;BME280;59762;49.998;14.858;2023-03-14T05:35:42;95474.66;;;9.62;81.80
71889;BME280;59762;49.998;14.858;2023-03-14T05:38:08;95474.44;;;9.64;81.89
71889;BME280;59762;49.998;14.858;2023-03-14T05:40:34;95491.25;;;9.64;81.87
71889;BME280;59762;49.998;14.858;2023-03-14T05:43:00;95491.22;;;9.58;82.33
71889;BME280;59762;49.998;14.858;2023-03-14T05:45:25;95494.91;;;9.57;82.10
71889;BME280;59762;49.998;14.858;2023-03-14T05:47:51;95492.25;;;9.57;82.33
71889;BME280;59762;49.998;14.858;2023-03-14T05:50:17;95492.41;;;9.49;82.89
71889;BME280;59762;49.998;14.858;2023-03-14T05:52:42;95495.31;;;9.54;82.65
71889;BME280;59762;49.998;14.858;2023-03-14T05:55:08;95493.91;;;9.58;82.34
71889;BME280;59762;49.998;14.858;2023-03-14T05:57:34;95499.38;;;9.50;82.74
71889;BME280;59762;49.998;14.858;2023-03-14T05:59:59;95510.22;;;9.48;83.28
71889;BME280;59762;49.998;14.858;2023-03-14T06:02:25;95508.97;;;9.44;83.44
71889;BME280;59762;49.998;14.858;2023-03-14T06:04:51;95504.69;;;9.43;83.90
71889;BME280;59762;49.998;14.858;2023-03-14T06:07:17;95514.72;;;9.41;83.66
71889;BME280;59762;49.998;14.858;2023-03-14T06:09:43;95511.03;;;9.42;83.59
71889;BME280;59762;49.998;14.858;2023-03-14T06:12:08;95507.94;;;9.39;83.89
71889;BME280;59762;49.998;14.858;2023-03-14T06:14:34;95505.06;;;9.34;84.14
71889;BME280;59762;49.998;14.858;2023-03-14T06:17:00;95514.50;;;9.36;83.74
71889;BME280;59762;49.998;14.858;2023-03-14T06:19:26;95512.88;;;9.42;83.27
71889;BME280;59762;49.998;14.858;2023-03-14T06:21:52;95513.28;;;9.39;83.33
71889;BME280;59762;49.998;14.858;2023-03-14T06:24:17;95515.75;;;9.40;83.26
71889;BME280;59762;49.998;14.858;2023-03-14T06:26:43;95511.84;;;9.36;83.68
71889;BME280;59762;49.998;14.858;2023-03-14T06:29:09;95520.63;;;9.37;83.91
71889;BME280;59762;49.998;14.858;2023-03-14T06:31:35;95528.22;;;9.40;83.35
71889;BME280;59762;49.998;14.858;2023-03-14T06:34:01;95532.97;;;9.44;83.63
71889;BME280;59762;49.998;14.858;2023-03-14T06:36:27;95522.06;;;9.39;84.26
71889;BME280;59762;49.998;14.858;2023-03-14T06:38:52;95500.81;;;9.46;83.49
71889;BME280;59762;49.998;14.858;2023-03-14T06:41:19;95496.94;;;9.55;83.00
71889;BME280;59762;49.998;14.858;2023-03-14T06:43:44;95501.91;;;9.64;82.14
71889;BME280;59762;49.998;14.858;2023-03-14T06:46:10;95501.53;;;9.67;82.15
71889;BME280;59762;49.998;14.858;2023-03-14T06:48:36;95515.28;;;9.71;81.96
71889;BME280;59762;49.998;14.858;2023-03-14T06:51:01;95520.03;;;9.75;81.69
71889;BME280;59762;49.998;14.858;2023-03-14T06:53:27;95509.97;;;9.77;81.51
71889;BME280;59762;49.998;14.858;2023-03-14T06:55:53;95501.41;;;9.88;80.44
71889;BME280;59762;49.998;14.858;2023-03-14T06:58:18;95509.19;;;9.90;80.43
71889;BME280;59762;49.998;14.858;2023-03-14T07:00:44;95505.72;;;9.96;79.82
71889;BME280;59762;49.998;14.858;2023-03-14T07:03:10;95520.72;;;10.03;79.94
71889;BME280;59762;49.998;14.858;2023-03-14T07:05:36;95529.19;;;10.13;79.34
71889;BME280;59762;49.998;14.858;2023-03-14T07:08:01;95531.06;;;10.19;78.67
71889;BME280;59762;49.998;14.858;2023-03-14T07:10:27;95538.06;;;10.33;77.30
71889;BME280;59762;49.998;14.858;2023-03-14T07:12:53;95538.28;;;10.45;77.48
71889;BME280;59762;49.998;14.858;2023-03-14T07:15:19;95554.13;;;10.53;77.13
71889;BME280;59762;49.998;14.858;2023-03-14T07:17:46;95551.84;;;10.56;77.10
71889;BME280;59762;49.998;14.858;2023-03-14T07:20:13;95558.00;;;10.44;77.06
71889;BME280;59762;49.998;14.858;2023-03-14T07:22:39;95549.19;;;10.50;76.91
71889;BME280;59762;49.998;14.858;2023-03-14T07:25:05;95552.06;;;10.55;76.34
71889;BME280;59762;49.998;14.858;2023-03-14T07:27:31;95537.06;;;10.54;76.07
71889;BME280;59762;49.998;14.858;2023-03-14T07:29:57;95533.19;;;10.63;75.27
71889;BME280;59762;49.998;14.858;2023-03-14T07:32:22;95535.66;;;10.77;74.32
71889;BME280;59762;49.998;14.858;2023-03-14T07:34:48;95527.25;;;10.74;74.02
71889;BME280;59762;49.998;14.858;2023-03-14T07:37:14;95542.84;;;10.96;74.41
71889;BME280;59762;49.998;14.858;2023-03-14T07:39:40;95534.63;;;10.85;74.15
71889;BME280;59762;49.998;14.858;2023-03-14T07:42:05;95529.09;;;10.86;73.98
71889;BME280;59762;49.998;14.858;2023-03-14T07:44:31;95519.44;;;10.79;74.56
71889;BME280;59762;49.998;14.858;2023-03-14T07:46:57;95528.28;;;10.73;74.64
71889;BME280;59762;49.998;14.858;2023-03-14T07:49:22;95531.75;;;10.80;74.02
71889;BME280;59762;49.998;14.858;2023-03-14T07:51:48;95534.84;;;10.90;74.50
71889;BME280;59762;49.998;14.858;2023-03-14T07:54:14;95525.81;;;11.17;72.78
71889;BME280;59762;49.998;14.858;2023-03-14T07:56:40;95526.81;;;11.22;72.17
71889;BME280;59762;49.998;14.858;2023-03-14T07:59:06;95531.94;;;11.11;72.41
71889;BME280;59762;49.998;14.858;2023-03-14T08:01:32;95528.88;;;11.07;71.99
71889;BME280;59762;49.998;14.858;2023-03-14T08:03:58;95524.97;;;11.16;71.75
71889;BME280;59762;49.998;14.858;2023-03-14T08:06:24;95523.13;;;11.30;71.18
71889;BME280;59762;49.998;14.858;2023-03-14T08:08:50;95536.25;;;11.38;71.39
71889;BME280;59762;49.998;14.858;2023-03-14T08:11:15;95539.94;;;11.37;70.75
71889;BME280;59762;49.998;14.858;2023-03-14T08:13:41;95529.41;;;11.55;70.30
71889;BME280;59762;49.998;14.858;2023-03-14T08:16:07;95524.69;;;11.63;69.97
71889;BME280;59762;49.998;14.858;2023-03-14T08:18:33;95524.81;;;11.88;68.34
71889;BME280;59762;49.998;14.858;2023-03-14T08:20:59;95535.16;;;11.78;68.72
71889;BME280;59762;49.998;14.858;2023-03-14T08:23:25;95538.19;;;11.88;68.38
71889;BME280;59762;49.998;14.858;2023-03-14T08:25:51;95535.84;;;12.04;67.29
71889;BME280;59762;49.998;14.858;2023-03-14T08:28:18;95534.22;;;12.03;67.62
71889;BME280;59762;49.998;14.858;2023-03-14T08:30:43;95536.72;;;11.98;67.19
71889;BME280;59762;49.998;14.858;2023-03-14T08:33:09;95538.47;;;12.17;65.74
71889;BME280;59762;49.998;14.858;2023-03-14T08:35:34;95536.09;;;12.03;66.99
71889;BME280;59762;49.998;14.858;2023-03-14T08:38:00;95536.56;;;11.87;67.73
71889;BME280;59762;49.998;14.858;2023-03-14T08:40:26;95543.13;;;11.91;66.81
71889;BME280;59762;49.998;14.858;2023-03-14T08:42:52;95547.44;;;11.92;66.42
71889;BME280;59762;49.998;14.858;2023-03-14T08:45:18;95540.88;;;11.88;65.80
71889;BME280;59762;49.998;14.858;2023-03-14T08:47:44;95549.31;;;11.78;66.46
71889;BME280;59762;49.998;14.858;2023-03-14T08:50:11;95553.25;;;11.76;66.81
71889;BME280;59762;49.998;14.858;2023-03-14T08:52:37;95545.44;;;11.74;66.83
71889;BME280;59762;49.998;14.858;2023-03-14T08:55:06;95548.47;;;11.91;66.76
71889;BME280;59762;49.998;14.858;2023-03-14T08:57:32;95550.75;;;11.81;66.28
71889;BME280;59762;49.998;14.858;2023-03-14T08:59:58;95552.00;;;11.78;65.93
71889;BME280;59762;49.998;14.858;2023-03-14T09:02:25;95540.69;;;11.83;66.02
71889;BME280;59762;49.998;14.858;2023-03-14T09:04:51;95558.22;;;11.66;66.50
71889;BME280;59762;49.998;14.858;2023-03-14T09:07:17;95555.75;;;11.51;67.04
71889;BME280;59762;49.998;14.858;2023-03-14T09:09:43;95552.28;;;11.64;67.55
71889;BME280;59762;49.998;14.858;2023-03-14T09:12:09;95552.38;;;11.95;65.23
71889;BME280;59762;49.998;14.858;2023-03-14T09:14:35;95546.22;;;11.81;65.30
71889;BME280;59762;49.998;14.858;2023-03-14T09:17:02;95556.13;;;11.74;65.76
71889;BME280;59762;49.998;14.858;2023-03-14T09:19:28;95555.13;;;11.56;65.76
71889;BME280;59762;49.998;14.858;2023-03-14T09:21:54;95564.19;;;11.42;66.80
71889;BME280;59762;49.998;14.858;2023-03-14T09:24:20;95562.94;;;11.57;66.12
71889;BME280;59762;49.998;14.858;2023-03-14T09:26:46;95576.91;;;11.53;66.27
71889;BME280;59762;49.998;14.858;2023-03-14T09:29:12;95581.03;;;11.49;66.06
71889;BME280;59762;49.998;14.858;2023-03-14T09:31:38;95594.81;;;11.46;66.78
71889;BME280;59762;49.998;14.858;2023-03-14T09:34:04;95593.38;;;11.37;65.83
71889;BME280;59762;49.998;14.858;2023-03-14T09:36:30;95585.78;;;11.34;65.46
71889;BME280;59762;49.998;14.858;2023-03-14T09:38:56;95593.78;;;11.53;65.14
71889;BME280;59762;49.998;14.858;2023-03-14T09:41:25;95585.97;;;11.52;64.34
71889;BME280;59762;49.998;14.858;2023-03-14T09:44:02;95583.72;;;11.49;64.91
71889;BME280;59762;49.998;14.858;2023-03-14T09:46:29;95570.34;;;11.42;65.10
71889;BME280;59762;49.998;14.858;2023-03-14T09:48:56;95569.53;;;11.42;64.77
71889;BME280;59762;49.998;14.858;2023-03-14T09:51:22;95571.38;;;11.54;65.16
71889;BME280;59762;49.998;14.858;2023-03-14T09:53:49;95569.50;;;11.55;64.54
71889;BME280;59762;49.998;14.858;2023-03-14T09:56:31;95565.19;;;11.67;63.82
71889;BME280;59762;49.998;14.858;2023-03-14T09:59:03;95569.28;;;11.69;64.34
71889;BME280;59762;49.998;14.858;2023-03-14T10:01:33;95566.41;;;11.77;63.03
71889;BME280;59762;49.998;14.858;2023-03-14T10:04:10;95559.53;;;12.01;62.67
71889;BME280;59762;49.998;14.858;2023-03-14T10:06:38;95556.81;;;12.14;61.63
71889;BME280;59762;49.998;14.858;2023-03-14T10:09:04;95559.13;;;12.04;61.77
71889;BME280;59762;49.998;14.858;2023-03-14T10:11:31;95561.72;;;12.23;60.77
71889;BME280;59762;49.998;14.858;2023-03-14T10:14:07;95554.59;;;12.48;61.48
71889;BME280;59762;49.998;14.858;2023-03-14T10:16:41;95562.16;;;12.51;60.31
71889;BME280;59762;49.998;14.858;2023-03-14T10:19:10;95553.72;;;12.17;60.87
71889;BME280;59762;49.998;14.858;2023-03-14T10:21:39;95560.00;;;12.35;61.18
71889;BME280;59762;49.998;14.858;2023-03-14T10:26:35;95551.16;;;12.35;60.62
71889;BME280;59762;49.998;14.858;2023-03-14T10:29:03;95545.69;;;12.54;60.11
71889;BME280;59762;49.998;14.858;2023-03-14T10:32:03;95536.75;;;12.67;59.66
71889;BME280;59762;49.998;14.858;2023-03-14T10:34:32;95541.31;;;12.91;58.57
71889;BME280;59762;49.998;14.858;2023-03-14T10:37:05;95551.25;;;12.53;58.92
71889;BME280;59762;49.998;14.858;2023-03-14T10:39:47;95556.44;;;12.48;60.06
71889;BME280;59762;49.998;14.858;2023-03-14T10:44:42;95547.84;;;12.33;59.95
71889;BME280;59762;49.998;14.858;2023-03-14T10:47:17;95549.56;;;12.27;59.54
71889;BME280;59762;49.998;14.858;2023-03-14T10:49:43;95558.69;;;12.07;60.16
71889;BME280;59762;49.998;14.858;2023-03-14T10:52:22;95562.41;;;12.06;59.80
71889;BME280;59762;49.998;14.858;2023-03-14T10:54:54;95555.97;;;12.13;60.14
71889;BME280;59762;49.998;14.858;2023-03-14T10:57:20;95560.31;;;12.14;59.90
71889;BME280;59762;49.998;14.858;2023-03-14T10:59:46;95557.38;;;12.29;58.53
71889;BME280;59762;49.998;14.858;2023-03-14T11:11:14;95559.22;;;11.71;59.46
71889;BME280;59762;49.998;14.858;2023-03-14T11:13:56;95558.00;;;11.74;59.57
71889;BME280;59762;49.998;14.858;2023-03-14T11:16:39;95562.53;;;11.60;59.63
71889;BME280;59762;49.998;14.858;2023-03-14T11:22:05;95557.75;;;11.82;60.43
71889;BME280;59762;49.998;14.858;2023-03-14T11:24:59;95562.94;;;11.70;61.74
71889;BME280;59762;49.998;14.858;2023-03-14T11:36:09;95555.09;;;11.82;60.54
71889;BME280;59762;49.998;14.858;2023-03-14T11:38:56;95547.53;;;11.66;60.66
71889;BME280;59762;49.998;14.858;2023-03-14T11:41:39;95551.00;;;11.73;60.06
71889;BME280;59762;49.998;14.858;2023-03-14T11:44:28;95544.75;;;11.92;59.51
71889;BME280;59762;49.998;14.858;2023-03-14T11:50:04;95538.56;;;11.98;59.52
71889;BME280;59762;49.998;14.858;2023-03-14T11:52:41;95529.19;;;11.69;59.25
71889;BME280;59762;49.998;14.858;2023-03-14T11:57:43;95535.59;;;11.68;59.57
71889;BME280;59762;49.998;14.858;2023-03-14T12:00:18;95526.72;;;11.74;59.84
71889;BME280;59762;49.998;14.858;2023-03-14T12:03:02;95529.81;;;11.78;60.66
71889;BME280;59762;49.998;14.858;2023-03-14T12:06:05;95531.66;;;11.77;60.57
71889;BME280;59762;49.998;14.858;2023-03-14T12:13:56;95528.59;;;11.67;60.90
71889;BME280;59762;49.998;14.858;2023-03-14T12:16:38;95531.09;;;11.62;61.51
71889;BME280;59762;49.998;14.858;2023-03-14T12:19:40;95523.88;;;11.63;60.77
71889;BME280;59762;49.998;14.858;2023-03-14T12:22:23;95516.00;;;11.74;60.29
71889;BME280;59762;49.998;14.858;2023-03-14T12:24:59;95514.69;;;12.03;60.55
71889;BME280;59762;49.998;14.858;2023-03-14T12:33:20;95501.16;;;11.85;60.34
71889;BME280;59762;49.998;14.858;2023-03-14T12:35:59;95513.25;;;11.94;59.35
71889;BME280;59762;49.998;14.858;2023-03-14T12:38:32;95504.34;;;11.69;61.24
71889;BME280;59762;49.998;14.858;2023-03-14T12:43:48;95516.56;;;11.96;59.28
71889;BME280;59762;49.998;14.858;2023-03-14T12:48:45;95519.59;;;12.06;59.08
71889;BME280;59762;49.998;14.858;2023-03-14T12:51:17;95515.00;;;11.75;59.27
71889;BME280;59762;49.998;14.858;2023-03-14T12:53:46;95524.69;;;11.70;59.98
71889;BME280;59762;49.998;14.858;2023-03-14T12:59:13;95516.00;;;11.74;58.53
71889;BME280;59762;49.998;14.858;2023-03-14T13:02:19;95507.97;;;11.81;59.56
71889;BME280;59762;49.998;14.858;2023-03-14T13:15:29;95494.44;;;12.13;58.52
71889;BME280;59762;49.998;14.858;2023-03-14T13:17:59;95496.00;;;11.96;59.07
71889;BME280;59762;49.998;14.858;2023-03-14T13:20:30;95492.75;;;11.81;58.56
71889;BME280;59762;49.998;14.858;2023-03-14T13:22:57;95499.56;;;11.77;58.83
71889;BME280;59762;49.998;14.858;2023-03-14T13:25:22;95495.84;;;11.78;59.04
71889;BME280;59762;49.998;14.858;2023-03-14T13:27:49;95497.56;;;11.66;60.01
71889;BME280;59762;49.998;14.858;2023-03-14T13:30:29;95485.63;;;11.69;59.30
71889;BME280;59762;49.998;14.858;2023-03-14T13:33:03;95494.66;;;11.61;59.51
71889;BME280;59762;49.998;14.858;2023-03-14T13:35:39;95494.25;;;11.58;60.30
71889;BME280;59762;49.998;14.858;2023-03-14T13:38:15;95495.31;;;11.63;59.57
71889;BME280;59762;49.998;14.858;2023-03-14T13:40:43;95494.25;;;11.58;59.46
71889;BME280;59762;49.998;14.858;2023-03-14T13:43:32;95489.72;;;11.71;58.53
71889;BME280;59762;49.998;14.858;2023-03-14T13:48:45;95494.69;;;11.48;59.76
71889;BME280;59762;49.998;14.858;2023-03-14T13:51:13;95492.88;;;11.36;60.31
71889;BME280;59762;49.998;14.858;2023-03-14T13:56:10;95490.19;;;11.42;60.40
71889;BME280;59762;49.998;14.858;2023-03-14T13:58:37;95483.97;;;11.61;59.33
71889;BME280;59762;49.998;14.858;2023-03-14T14:01:25;95481.28;;;11.68;59.20
71889;BME280;59762;49.998;14.858;2023-03-14T14:03:55;95486.28;;;11.38;59.89
71889;BME280;59762;49.998;14.858;2023-03-14T14:09:00;95487.34;;;11.24;61.16
71889;BME280;59762;49.998;14.858;2023-03-14T14:11:33;95477.28;;;11.13;61.10
71889;BME280;59762;49.998;14.858;2023-03-14T14:14:01;95476.69;;;11.18;61.37
71889;BME280;59762;49.998;14.858;2023-03-14T14:16:28;95472.53;;;11.35;61.18
71889;BME280;59762;49.998;14.858;2023-03-14T14:18:56;95470.06;;;11.40;61.48
71889;BME280;59762;49.998;14.858;2023-03-14T14:21:23;95468.59;;;11.50;62.03